novedadesacapulco.mx alexa rank chart, novedadesacapulco.mx alexa rank daily changes

novedadesacapulco.mx alexa rank chart, novedadesacapulco.mx alexa rank daily changes

novedadesacapulco.mx
Actual rank:
256 504

RANK HISTORY

Date Rank Diff
2017/01/23 256 504 -662
2017/01/22 257 166 +2 308
2017/01/21 254 858 +2 088
2017/01/20 252 770 +284
2017/01/19 252 486 -84
2017/01/18 252 570 -523
2017/01/17 253 093 +3 480
2017/01/16 249 613 -42
2017/01/15 249 655 -993
2017/01/14 250 648 +4 187
2017/01/13 246 461 +6 518
2017/01/12 239 943 -1 691
2017/01/11 241 634 -2 830
2017/01/10 244 464 -2 547
2017/01/09 247 011 -6 526
2017/01/08 253 537 -306
2017/01/07 253 843 -251
2017/01/06 254 094 -682
2017/01/05 254 776 +5 135
2017/01/04 249 641 -3 956
2017/01/03 253 597 -3 468
2017/01/02 257 065 +2 288
2017/01/01 254 777 -2 783
2016/12/31 257 560 +655
2016/12/30 256 905 +2 978
2016/12/29 253 927 +2 620
2016/12/28 251 307 -199
2016/12/27 251 506 +1 901
2016/12/26 249 605 +1 017
2016/12/25 248 588 +4 696
2016/12/24 243 892 +530
2016/12/23 243 362 +1 202
2016/12/22 242 160 +1 437
2016/12/21 240 723 -529
2016/12/20 241 252 +3 388
2016/12/19 237 864 +2 295
2016/12/18 235 569 +3 070
2016/12/17 232 499 +7 391
2016/12/16 225 108 +1 715
2016/12/15 223 393 +3 563
2016/12/14 219 830 +2 599
2016/12/13 217 231 -229
2016/12/12 217 460 +6 944
2016/12/11 210 516 +4 370
2016/12/10 206 146 +1 497
2016/12/09 204 649 +4 737
2016/12/08 199 912 -355
2016/12/07 200 267 +4 253
2016/12/06 196 014 +3 223
2016/12/05 192 791 +1 781
2016/12/04 191 010 +4 575
2016/12/02 186 435 +676
2016/12/01 185 759 +11 354
2016/11/30 174 405 +2 790
2016/11/29 171 615 +3 895
2016/11/28 167 720 +134
2016/11/27 167 586 +4 314
2016/11/26 163 272 +2 887
2016/11/25 160 385 -3 747
2016/11/24 164 132

WIDGET FOR YOUR SITE

DOMAINS WITH THE NEAREST RANK

Domain Rank
priceme.com.ph 256 499
gabbedtcwmhjd.online 256 500
creativetoolbars.com 256 501
speedyads.com 256 502
leftaction.com 256 503
novedadesacapulco.mx 256 504
takenaka-akio.org 256 505
justlikefireman.ru 256 506
idsociety.org 256 507
hostingsource.com 256 508
webimeh.com 256 509

DOMAINS WITH THE NEAREST RANK BY TLD .mx

Domain Rank
cheapoair.mx 253 620
lja.mx 254 284
utm.mx 254 666
guiabbb.mx 255 621
suracapulco.mx 256 030
novedadesacapulco.mx 256 504
obrasweb.mx 256 838
ita.mx 257 930
cecytem.mx 259 037
heraldoleon.mx 259 096
presidentes.mx 261 075